sensor_id;sensor_type;location;lat;lon;timestamp;temperature;humidity
52211;DHT22;38179;52.756;6.906;2022-12-29T00:01:57;9.80;99.90
52211;DHT22;38179;52.756;6.906;2022-12-29T00:04:23;9.90;99.90
52211;DHT22;38179;52.756;6.906;2022-12-29T00:06:49;9.90;99.90
52211;DHT22;38179;52.756;6.906;2022-12-29T00:09:15;9.90;99.90
52211;DHT22;38179;52.756;6.906;2022-12-29T00:11:42;10.00;99.90
52211;DHT22;38179;52.756;6.906;2022-12-29T00:14:08;10.00;99.90
52211;DHT22;38179;52.756;6.906;2022-12-29T00:16:53;10.00;99.90
52211;DHT22;38179;52.756;6.906;2022-12-29T00:19:19;10.10;99.90
52211;DHT22;38179;52.756;6.906;2022-12-29T00:22:03;10.20;99.90
52211;DHT22;38179;52.756;6.906;2022-12-29T00:24:47;10.10;99.90
52211;DHT22;38179;52.756;6.906;2022-12-29T00:27:32;10.10;99.90
52211;DHT22;38179;52.756;6.906;2022-12-29T00:30:17;10.20;99.90
52211;DHT22;38179;52.756;6.906;2022-12-29T00:33:25;10.20;99.90
52211;DHT22;38179;52.756;6.906;2022-12-29T00:36:08;10.10;99.90
52211;DHT22;38179;52.756;6.906;2022-12-29T00:38:35;10.10;99.90
52211;DHT22;38179;52.756;6.906;2022-12-29T00:41:20;10.10;99.90
52211;DHT22;38179;52.756;6.906;2022-12-29T00:44:04;10.10;99.90
52211;DHT22;38179;52.756;6.906;2022-12-29T00:46:44;10.10;99.90
52211;DHT22;38179;52.756;6.906;2022-12-29T00:49:11;10.20;99.90
52211;DHT22;38179;52.756;6.906;2022-12-29T00:51:56;10.20;99.90
52211;DHT22;38179;52.756;6.906;2022-12-29T00:54:22;10.20;99.90
52211;DHT22;38179;52.756;6.906;2022-12-29T00:56:49;10.20;99.90
52211;DHT22;38179;52.756;6.906;2022-12-29T00:59:15;10.20;99.90
52211;DHT22;38179;52.756;6.906;2022-12-29T01:01:41;10.20;99.90
52211;DHT22;38179;52.756;6.906;2022-12-29T01:04:07;10.20;99.90
52211;DHT22;38179;52.756;6.906;2022-12-29T01:06:34;10.20;99.90
52211;DHT22;38179;52.756;6.906;2022-12-29T01:09:00;10.30;99.90
52211;DHT22;38179;52.756;6.906;2022-12-29T01:11:44;10.30;99.90
52211;DHT22;38179;52.756;6.906;2022-12-29T01:14:10;10.30;99.90
52211;DHT22;38179;52.756;6.906;2022-12-29T01:16:36;10.40;99.90
52211;DHT22;38179;52.756;6.906;2022-12-29T01:19:02;10.40;99.90
52211;DHT22;38179;52.756;6.906;2022-12-29T01:21:28;10.40;99.90
52211;DHT22;38179;52.756;6.906;2022-12-29T01:23:54;10.50;99.90
52211;DHT22;38179;52.756;6.906;2022-12-29T01:26:20;10.50;99.90
52211;DHT22;38179;52.756;6.906;2022-12-29T01:28:46;10.60;99.90
52211;DHT22;38179;52.756;6.906;2022-12-29T01:31:13;10.50;99.90
52211;DHT22;38179;52.756;6.906;2022-12-29T01:33:39;10.60;99.90
52211;DHT22;38179;52.756;6.906;2022-12-29T01:36:06;10.60;99.90
52211;DHT22;38179;52.756;6.906;2022-12-29T01:38:33;10.60;99.90
52211;DHT22;38179;52.756;6.906;2022-12-29T01:40:59;10.60;99.90
52211;DHT22;38179;52.756;6.906;2022-12-29T01:46:17;10.70;99.90
52211;DHT22;38179;52.756;6.906;2022-12-29T01:48:45;10.70;99.90
52211;DHT22;38179;52.756;6.906;2022-12-29T01:51:11;10.60;99.90
52211;DHT22;38179;52.756;6.906;2022-12-29T01:53:36;10.60;99.90
52211;DHT22;38179;52.756;6.906;2022-12-29T01:56:04;10.60;99.90
52211;DHT22;38179;52.756;6.906;2022-12-29T01:58:32;10.60;99.90
52211;DHT22;38179;52.756;6.906;2022-12-29T02:00:59;10.50;99.90
52211;DHT22;38179;52.756;6.906;2022-12-29T02:03:25;10.50;99.90
52211;DHT22;38179;52.756;6.906;2022-12-29T02:05:56;10.60;99.90
52211;DHT22;38179;52.756;6.906;2022-12-29T02:08:25;10.50;99.90
52211;DHT22;38179;52.756;6.906;2022-12-29T02:10:51;10.50;99.90
52211;DHT22;38179;52.756;6.906;2022-12-29T02:13:17;10.50;99.90
52211;DHT22;38179;52.756;6.906;2022-12-29T02:28:46;10.40;99.90
52211;DHT22;38179;52.756;6.906;2022-12-29T02:31:59;10.50;99.90
52211;DHT22;38179;52.756;6.906;2022-12-29T02:39:04;10.50;99.90
52211;DHT22;38179;52.756;6.906;2022-12-29T02:44:05;10.40;99.90
52211;DHT22;38179;52.756;6.906;2022-12-29T02:46:36;10.30;99.90
52211;DHT22;38179;52.756;6.906;2022-12-29T02:49:10;10.30;99.90
52211;DHT22;38179;52.756;6.906;2022-12-29T02:51:55;10.20;99.90
52211;DHT22;38179;52.756;6.906;2022-12-29T02:54:22;10.20;99.90
52211;DHT22;38179;52.756;6.906;2022-12-29T02:59:48;10.10;99.90
52211;DHT22;38179;52.756;6.906;2022-12-29T03:13:02;9.80;99.90
52211;DHT22;38179;52.756;6.906;2022-12-29T03:16:35;9.80;99.90
52211;DHT22;38179;52.756;6.906;2022-12-29T03:21:24;9.80;99.90
52211;DHT22;38179;52.756;6.906;2022-12-29T03:24:11;9.80;99.90
52211;DHT22;38179;52.756;6.906;2022-12-29T03:26:37;9.80;99.90
52211;DHT22;38179;52.756;6.906;2022-12-29T03:29:03;9.90;99.90
52211;DHT22;38179;52.756;6.906;2022-12-29T03:31:29;9.90;99.90
52211;DHT22;38179;52.756;6.906;2022-12-29T03:33:55;10.00;99.90
52211;DHT22;38179;52.756;6.906;2022-12-29T03:36:28;9.90;99.90
52211;DHT22;38179;52.756;6.906;2022-12-29T03:39:03;9.90;99.90
52211;DHT22;38179;52.756;6.906;2022-12-29T03:41:31;10.00;99.90
52211;DHT22;38179;52.756;6.906;2022-12-29T03:43:58;10.00;99.90
52211;DHT22;38179;52.756;6.906;2022-12-29T03:46:24;10.00;99.90
52211;DHT22;38179;52.756;6.906;2022-12-29T03:48:50;10.00;99.90
52211;DHT22;38179;52.756;6.906;2022-12-29T03:51:15;10.00;99.90
52211;DHT22;38179;52.756;6.906;2022-12-29T03:53:41;10.00;99.90
52211;DHT22;38179;52.756;6.906;2022-12-29T03:56:07;10.00;99.90
52211;DHT22;38179;52.756;6.906;2022-12-29T03:58:34;10.00;99.90
52211;DHT22;38179;52.756;6.906;2022-12-29T04:01:00;10.00;99.90
52211;DHT22;38179;52.756;6.906;2022-12-29T04:03:25;10.10;99.90
52211;DHT22;38179;52.756;6.906;2022-12-29T04:05:51;10.10;99.90
52211;DHT22;38179;52.756;6.906;2022-12-29T04:08:17;10.10;99.90
52211;DHT22;38179;52.756;6.906;2022-12-29T04:10:43;10.20;99.90
52211;DHT22;38179;52.756;6.906;2022-12-29T04:13:08;10.20;99.90
52211;DHT22;38179;52.756;6.906;2022-12-29T04:15:34;10.20;99.90
52211;DHT22;38179;52.756;6.906;2022-12-29T04:18:00;10.20;99.90
52211;DHT22;38179;52.756;6.906;2022-12-29T04:20:26;10.30;99.90
52211;DHT22;38179;52.756;6.906;2022-12-29T04:23:10;10.20;99.90
52211;DHT22;38179;52.756;6.906;2022-12-29T04:25:36;10.30;99.90
52211;DHT22;38179;52.756;6.906;2022-12-29T04:28:02;10.20;99.90
52211;DHT22;38179;52.756;6.906;2022-12-29T04:30:28;10.20;99.90
52211;DHT22;38179;52.756;6.906;2022-12-29T04:32:53;10.20;99.90
52211;DHT22;38179;52.756;6.906;2022-12-29T04:35:19;10.20;99.90
52211;DHT22;38179;52.756;6.906;2022-12-29T04:37:45;10.20;99.90
52211;DHT22;38179;52.756;6.906;2022-12-29T04:40:11;10.20;99.90
52211;DHT22;38179;52.756;6.906;2022-12-29T04:42:37;10.20;99.90
52211;DHT22;38179;52.756;6.906;2022-12-29T04:45:03;10.20;99.90
52211;DHT22;38179;52.756;6.906;2022-12-29T04:47:29;10.20;99.90
52211;DHT22;38179;52.756;6.906;2022-12-29T04:49:54;10.30;99.90
52211;DHT22;38179;52.756;6.906;2022-12-29T04:52:20;10.20;99.90
52211;DHT22;38179;52.756;6.906;2022-12-29T04:54:46;10.20;99.90
52211;DHT22;38179;52.756;6.906;2022-12-29T04:57:12;10.20;99.90
52211;DHT22;38179;52.756;6.906;2022-12-29T04:59:37;10.20;99.90
52211;DHT22;38179;52.756;6.906;2022-12-29T05:02:03;10.10;99.90
52211;DHT22;38179;52.756;6.906;2022-12-29T05:04:30;10.10;99.90
52211;DHT22;38179;52.756;6.906;2022-12-29T05:06:56;10.10;99.90
52211;DHT22;38179;52.756;6.906;2022-12-29T05:09:22;10.10;99.90
52211;DHT22;38179;52.756;6.906;2022-12-29T05:11:49;10.10;99.90
52211;DHT22;38179;52.756;6.906;2022-12-29T05:14:15;10.10;99.90
52211;DHT22;38179;52.756;6.906;2022-12-29T05:16:40;10.10;99.90
52211;DHT22;38179;52.756;6.906;2022-12-29T05:19:06;10.10;99.90
52211;DHT22;38179;52.756;6.906;2022-12-29T05:21:32;10.10;99.90
52211;DHT22;38179;52.756;6.906;2022-12-29T05:23:58;10.10;99.90
52211;DHT22;38179;52.756;6.906;2022-12-29T05:26:24;10.10;99.90
52211;DHT22;38179;52.756;6.906;2022-12-29T05:28:50;10.10;99.90
52211;DHT22;38179;52.756;6.906;2022-12-29T05:31:15;10.10;99.90
52211;DHT22;38179;52.756;6.906;2022-12-29T05:33:41;10.20;99.90
52211;DHT22;38179;52.756;6.906;2022-12-29T05:36:07;10.10;99.90
52211;DHT22;38179;52.756;6.906;2022-12-29T05:38:34;10.10;99.90
52211;DHT22;38179;52.756;6.906;2022-12-29T05:41:00;10.10;99.90
52211;DHT22;38179;52.756;6.906;2022-12-29T05:43:25;10.10;99.90
52211;DHT22;38179;52.756;6.906;2022-12-29T05:45:51;10.10;99.90
52211;DHT22;38179;52.756;6.906;2022-12-29T05:48:17;10.10;99.90
52211;DHT22;38179;52.756;6.906;2022-12-29T05:50:46;10.10;99.90
52211;DHT22;38179;52.756;6.906;2022-12-29T05:53:13;10.10;99.90
52211;DHT22;38179;52.756;6.906;2022-12-29T05:55:39;10.10;99.90
52211;DHT22;38179;52.756;6.906;2022-12-29T05:58:04;10.10;99.90
52211;DHT22;38179;52.756;6.906;2022-12-29T06:00:30;10.10;99.90
52211;DHT22;38179;52.756;6.906;2022-12-29T06:02:56;10.10;99.90
52211;DHT22;38179;52.756;6.906;2022-12-29T06:05:22;10.10;99.90
52211;DHT22;38179;52.756;6.906;2022-12-29T06:07:47;10.00;99.90
52211;DHT22;38179;52.756;6.906;2022-12-29T06:10:13;10.00;99.90
52211;DHT22;38179;52.756;6.906;2022-12-29T06:12:39;10.00;99.90
52211;DHT22;38179;52.756;6.906;2022-12-29T06:15:05;10.10;99.90
52211;DHT22;38179;52.756;6.906;2022-12-29T06:17:31;10.10;99.90
52211;DHT22;38179;52.756;6.906;2022-12-29T06:19:57;10.10;99.90
52211;DHT22;38179;52.756;6.906;2022-12-29T06:22:22;10.10;99.90
52211;DHT22;38179;52.756;6.906;2022-12-29T06:24:48;10.00;99.90
52211;DHT22;38179;52.756;6.906;2022-12-29T06:27:14;10.00;99.90
52211;DHT22;38179;52.756;6.906;2022-12-29T06:29:40;10.00;99.90
52211;DHT22;38179;52.756;6.906;2022-12-29T06:32:06;9.90;99.90
52211;DHT22;38179;52.756;6.906;2022-12-29T06:34:32;9.90;99.90
52211;DHT22;38179;52.756;6.906;2022-12-29T06:36:57;9.90;99.90
52211;DHT22;38179;52.756;6.906;2022-12-29T06:39:23;10.00;99.90
52211;DHT22;38179;52.756;6.906;2022-12-29T06:41:51;10.10;99.90
52211;DHT22;38179;52.756;6.906;2022-12-29T06:44:17;10.00;99.90
52211;DHT22;38179;52.756;6.906;2022-12-29T06:46:43;10.00;99.90
52211;DHT22;38179;52.756;6.906;2022-12-29T06:49:09;10.00;99.90
52211;DHT22;38179;52.756;6.906;2022-12-29T06:51:34;9.90;99.90
52211;DHT22;38179;52.756;6.906;2022-12-29T06:54:00;9.90;99.90
52211;DHT22;38179;52.756;6.906;2022-12-29T06:56:26;9.90;99.90
52211;DHT22;38179;52.756;6.906;2022-12-29T06:58:52;9.90;99.90
52211;DHT22;38179;52.756;6.906;2022-12-29T07:01:17;9.80;99.90
52211;DHT22;38179;52.756;6.906;2022-12-29T07:03:43;9.80;99.90
52211;DHT22;38179;52.756;6.906;2022-12-29T07:06:09;9.80;99.90
52211;DHT22;38179;52.756;6.906;2022-12-29T07:08:35;9.80;99.90
52211;DHT22;38179;52.756;6.906;2022-12-29T07:11:01;9.80;99.90
52211;DHT22;38179;52.756;6.906;2022-12-29T07:13:26;9.80;99.90
52211;DHT22;38179;52.756;6.906;2022-12-29T07:15:52;9.70;99.90
52211;DHT22;38179;52.756;6.906;2022-12-29T07:18:18;9.70;99.90
52211;DHT22;38179;52.756;6.906;2022-12-29T07:20:44;9.60;99.90
52211;DHT22;38179;52.756;6.906;2022-12-29T07:23:10;9.60;99.90
52211;DHT22;38179;52.756;6.906;2022-12-29T07:25:36;9.60;99.90
52211;DHT22;38179;52.756;6.906;2022-12-29T07:28:02;9.50;99.90
52211;DHT22;38179;52.756;6.906;2022-12-29T07:30:28;9.50;99.90
52211;DHT22;38179;52.756;6.906;2022-12-29T07:32:54;9.50;99.90
52211;DHT22;38179;52.756;6.906;2022-12-29T07:35:20;9.50;99.90
52211;DHT22;38179;52.756;6.906;2022-12-29T07:37:45;9.50;99.90
52211;DHT22;38179;52.756;6.906;2022-12-29T07:40:11;9.50;99.90
52211;DHT22;38179;52.756;6.906;2022-12-29T07:42:38;9.50;99.90
52211;DHT22;38179;52.756;6.906;2022-12-29T07:45:04;9.50;99.90
52211;DHT22;38179;52.756;6.906;2022-12-29T07:47:30;9.50;99.90
52211;DHT22;38179;52.756;6.906;2022-12-29T07:49:55;9.50;99.90
52211;DHT22;38179;52.756;6.906;2022-12-29T07:52:21;9.50;99.90
52211;DHT22;38179;52.756;6.906;2022-12-29T07:54:47;9.50;99.90
52211;DHT22;38179;52.756;6.906;2022-12-29T07:57:13;9.50;99.90
52211;DHT22;38179;52.756;6.906;2022-12-29T07:59:39;9.50;99.90
52211;DHT22;38179;52.756;6.906;2022-12-29T08:02:04;9.50;99.90
52211;DHT22;38179;52.756;6.906;2022-12-29T08:04:30;9.50;99.90
52211;DHT22;38179;52.756;6.906;2022-12-29T08:06:56;9.50;99.90
52211;DHT22;38179;52.756;6.906;2022-12-29T08:09:22;9.50;99.90
52211;DHT22;38179;52.756;6.906;2022-12-29T08:11:47;9.50;99.90
52211;DHT22;38179;52.756;6.906;2022-12-29T08:14:13;9.40;99.90
52211;DHT22;38179;52.756;6.906;2022-12-29T08:16:39;9.40;99.90
52211;DHT22;38179;52.756;6.906;2022-12-29T08:19:05;9.40;99.90
52211;DHT22;38179;52.756;6.906;2022-12-29T08:21:30;9.40;99.90
52211;DHT22;38179;52.756;6.906;2022-12-29T08:23:56;9.40;99.90
52211;DHT22;38179;52.756;6.906;2022-12-29T08:26:22;9.40;99.90
52211;DHT22;38179;52.756;6.906;2022-12-29T08:28:48;9.30;99.90
52211;DHT22;38179;52.756;6.906;2022-12-29T08:31:14;9.30;99.90
52211;DHT22;38179;52.756;6.906;2022-12-29T08:33:40;9.30;99.90
52211;DHT22;38179;52.756;6.906;2022-12-29T08:36:06;9.30;99.90
52211;DHT22;38179;52.756;6.906;2022-12-29T08:38:32;9.30;99.90
52211;DHT22;38179;52.756;6.906;2022-12-29T08:40:58;9.30;99.90
52211;DHT22;38179;52.756;6.906;2022-12-29T08:43:26;9.30;99.90
52211;DHT22;38179;52.756;6.906;2022-12-29T08:45:56;9.30;99.90
52211;DHT22;38179;52.756;6.906;2022-12-29T08:48:22;9.30;99.90
52211;DHT22;38179;52.756;6.906;2022-12-29T08:50:48;9.30;99.90
52211;DHT22;38179;52.756;6.906;2022-12-29T08:53:15;9.30;99.90
52211;DHT22;38179;52.756;6.906;2022-12-29T08:55:41;9.30;99.90
52211;DHT22;38179;52.756;6.906;2022-12-29T08:58:06;9.20;99.90
52211;DHT22;38179;52.756;6.906;2022-12-29T09:00:32;9.30;99.90
52211;DHT22;38179;52.756;6.906;2022-12-29T09:02:58;9.30;99.90
52211;DHT22;38179;52.756;6.906;2022-12-29T09:05:24;9.30;99.90
52211;DHT22;38179;52.756;6.906;2022-12-29T09:07:50;9.30;99.90
52211;DHT22;38179;52.756;6.906;2022-12-29T09:10:15;9.30;99.90
52211;DHT22;38179;52.756;6.906;2022-12-29T09:12:41;9.30;99.90
52211;DHT22;38179;52.756;6.906;2022-12-29T09:15:07;9.30;99.90
52211;DHT22;38179;52.756;6.906;2022-12-29T09:17:33;9.30;99.90
52211;DHT22;38179;52.756;6.906;2022-12-29T09:20:12;9.40;99.90
52211;DHT22;38179;52.756;6.906;2022-12-29T09:22:38;9.40;99.90
52211;DHT22;38179;52.756;6.906;2022-12-29T09:25:04;9.40;99.90
52211;DHT22;38179;52.756;6.906;2022-12-29T09:27:30;9.40;99.90
52211;DHT22;38179;52.756;6.906;2022-12-29T09:29:55;9.40;99.90
52211;DHT22;38179;52.756;6.906;2022-12-29T09:32:21;9.30;99.90
52211;DHT22;38179;52.756;6.906;2022-12-29T09:34:47;9.20;99.90
52211;DHT22;38179;52.756;6.906;2022-12-29T09:37:13;9.20;99.90
52211;DHT22;38179;52.756;6.906;2022-12-29T09:39:39;9.10;99.90
52211;DHT22;38179;52.756;6.906;2022-12-29T09:46:56;9.10;99.90
52211;DHT22;38179;52.756;6.906;2022-12-29T09:49:29;9.10;99.90
52211;DHT22;38179;52.756;6.906;2022-12-29T09:52:00;9.10;99.90
52211;DHT22;38179;52.756;6.906;2022-12-29T09:56:56;9.00;99.90
52211;DHT22;38179;52.756;6.906;2022-12-29T09:59:24;9.10;99.90
52211;DHT22;38179;52.756;6.906;2022-12-29T10:02:08;9.10;99.90
52211;DHT22;38179;52.756;6.906;2022-12-29T10:04:38;9.20;99.90
52211;DHT22;38179;52.756;6.906;2022-12-29T10:07:28;9.30;99.90
52211;DHT22;38179;52.756;6.906;2022-12-29T10:15:37;9.40;99.90
52211;DHT22;38179;52.756;6.906;2022-12-29T10:18:12;9.50;99.90
52211;DHT22;38179;52.756;6.906;2022-12-29T10:21:02;9.50;99.90
52211;DHT22;38179;52.756;6.906;2022-12-29T10:23:32;9.60;99.90
52211;DHT22;38179;52.756;6.906;2022-12-29T10:26:00;9.60;99.90
52211;DHT22;38179;52.756;6.906;2022-12-29T10:28:40;9.60;99.90
52211;DHT22;38179;52.756;6.906;2022-12-29T10:31:13;9.60;99.90
52211;DHT22;38179;52.756;6.906;2022-12-29T10:33:42;9.60;99.90
52211;DHT22;38179;52.756;6.906;2022-12-29T10:37:09;9.60;99.90
52211;DHT22;38179;52.756;6.906;2022-12-29T10:41:32;9.70;99.90
52211;DHT22;38179;52.756;6.906;2022-12-29T10:44:01;9.60;99.90
52211;DHT22;38179;52.756;6.906;2022-12-29T10:46:29;9.60;99.90
52211;DHT22;38179;52.756;6.906;2022-12-29T10:48:56;9.50;99.90
52211;DHT22;38179;52.756;6.906;2022-12-29T10:51:26;9.50;99.90
52211;DHT22;38179;52.756;6.906;2022-12-29T10:53:57;9.40;99.90
52211;DHT22;38179;52.756;6.906;2022-12-29T10:58:59;9.30;99.90
52211;DHT22;38179;52.756;6.906;2022-12-29T11:01:29;9.30;99.90
52211;DHT22;38179;52.756;6.906;2022-12-29T11:04:22;9.30;99.90
52211;DHT22;38179;52.756;6.906;2022-12-29T11:06:48;9.20;99.90
52211;DHT22;38179;52.756;6.906;2022-12-29T11:09:23;9.20;99.90
52211;DHT22;38179;52.756;6.906;2022-12-29T11:11:50;9.10;99.90
52211;DHT22;38179;52.756;6.906;2022-12-29T11:14:29;9.00;99.90
52211;DHT22;38179;52.756;6.906;2022-12-29T11:16:59;9.00;99.90
52211;DHT22;38179;52.756;6.906;2022-12-29T11:19:26;8.90;99.90
52211;DHT22;38179;52.756;6.906;2022-12-29T11:21:52;8.90;99.90
52211;DHT22;38179;52.756;6.906;2022-12-29T11:24:20;8.80;99.90
52211;DHT22;38179;52.756;6.906;2022-12-29T11:26:46;8.80;99.90
52211;DHT22;38179;52.756;6.906;2022-12-29T11:29:22;8.80;99.90
52211;DHT22;38179;52.756;6.906;2022-12-29T11:31:58;8.80;99.90
52211;DHT22;38179;52.756;6.906;2022-12-29T11:37:06;8.70;99.90
52211;DHT22;38179;52.756;6.906;2022-12-29T11:39:55;8.70;99.90
52211;DHT22;38179;52.756;6.906;2022-12-29T11:42:23;8.70;99.90
52211;DHT22;38179;52.756;6.906;2022-12-29T11:44:54;8.70;99.90
52211;DHT22;38179;52.756;6.906;2022-12-29T11:47:29;8.70;99.90
52211;DHT22;38179;52.756;6.906;2022-12-29T11:49:59;8.70;99.90
52211;DHT22;38179;52.756;6.906;2022-12-29T11:52:27;8.70;99.90
52211;DHT22;38179;52.756;6.906;2022-12-29T11:54:54;8.80;99.90
52211;DHT22;38179;52.756;6.906;2022-12-29T11:57:20;8.70;99.90
52211;DHT22;38179;52.756;6.906;2022-12-29T11:59:51;8.70;99.90
52211;DHT22;38179;52.756;6.906;2022-12-29T12:04:47;8.80;99.90
52211;DHT22;38179;52.756;6.906;2022-12-29T12:07:15;8.80;99.90
52211;DHT22;38179;52.756;6.906;2022-12-29T12:12:09;8.90;99.90
52211;DHT22;38179;52.756;6.906;2022-12-29T12:14:43;9.10;99.90
52211;DHT22;38179;52.756;6.906;2022-12-29T12:17:13;9.10;99.90
52211;DHT22;38179;52.756;6.906;2022-12-29T12:20:14;9.20;99.90
52211;DHT22;38179;52.756;6.906;2022-12-29T12:22:33;9.20;99.90
52211;DHT22;38179;52.756;6.906;2022-12-29T12:25:02;9.30;99.90
52211;DHT22;38179;52.756;6.906;2022-12-29T12:27:33;9.30;99.90
52211;DHT22;38179;52.756;6.906;2022-12-29T12:30:15;9.40;99.90
52211;DHT22;38179;52.756;6.906;2022-12-29T12:32:44;9.50;99.90
52211;DHT22;38179;52.756;6.906;2022-12-29T12:35:16;9.50;99.90
52211;DHT22;38179;52.756;6.906;2022-12-29T12:37:52;9.50;99.90
52211;DHT22;38179;52.756;6.906;2022-12-29T12:49:16;9.40;99.90
52211;DHT22;38179;52.756;6.906;2022-12-29T12:51:19;9.40;99.90
52211;DHT22;38179;52.756;6.906;2022-12-29T12:56:47;9.40;99.90
52211;DHT22;38179;52.756;6.906;2022-12-29T12:59:37;9.40;99.90
52211;DHT22;38179;52.756;6.906;2022-12-29T13:02:13;9.40;99.90
52211;DHT22;38179;52.756;6.906;2022-12-29T13:10:22;9.40;99.90
52211;DHT22;38179;52.756;6.906;2022-12-29T13:18:26;9.30;99.90
52211;DHT22;38179;52.756;6.906;2022-12-29T13:23:35;9.30;99.90
52211;DHT22;38179;52.756;6.906;2022-12-29T13:26:14;9.20;99.90
52211;DHT22;38179;52.756;6.906;2022-12-29T13:31:30;9.20;99.90
52211;DHT22;38179;52.756;6.906;2022-12-29T13:36:35;9.20;99.90
52211;DHT22;38179;52.756;6.906;2022-12-29T13:39:05;9.20;99.90
52211;DHT22;38179;52.756;6.906;2022-12-29T13:41:43;9.20;99.90
52211;DHT22;38179;52.756;6.906;2022-12-29T13:44:12;9.20;99.90
52211;DHT22;38179;52.756;6.906;2022-12-29T13:46:42;9.10;99.90
52211;DHT22;38179;52.756;6.906;2022-12-29T13:49:13;9.00;99.90
52211;DHT22;38179;52.756;6.906;2022-12-29T13:51:42;9.10;99.90
52211;DHT22;38179;52.756;6.906;2022-12-29T13:54:15;9.00;99.90
52211;DHT22;38179;52.756;6.906;2022-12-29T13:56:50;9.00;99.90
52211;DHT22;38179;52.756;6.906;2022-12-29T13:59:23;8.90;99.90
52211;DHT22;38179;52.756;6.906;2022-12-29T14:01:59;8.90;99.90
52211;DHT22;38179;52.756;6.906;2022-12-29T14:04:28;8.90;99.90
52211;DHT22;38179;52.756;6.906;2022-12-29T14:07:01;8.80;99.90
52211;DHT22;38179;52.756;6.906;2022-12-29T14:15:05;8.70;99.90
52211;DHT22;38179;52.756;6.906;2022-12-29T14:17:33;8.70;99.90
52211;DHT22;38179;52.756;6.906;2022-12-29T14:19:59;8.70;99.90
52211;DHT22;38179;52.756;6.906;2022-12-29T14:22:25;8.60;99.90
52211;DHT22;38179;52.756;6.906;2022-12-29T14:24:51;8.70;99.90
52211;DHT22;38179;52.756;6.906;2022-12-29T14:29:47;8.70;99.90
52211;DHT22;38179;52.756;6.906;2022-12-29T14:34:58;8.70;99.90
52211;DHT22;38179;52.756;6.906;2022-12-29T14:40:02;8.70;99.90
52211;DHT22;38179;52.756;6.906;2022-12-29T14:42:28;8.80;99.90
52211;DHT22;38179;52.756;6.906;2022-12-29T14:45:02;8.80;99.90
52211;DHT22;38179;52.756;6.906;2022-12-29T14:47:31;8.80;99.90
52211;DHT22;38179;52.756;6.906;2022-12-29T14:50:17;8.80;99.90
52211;DHT22;38179;52.756;6.906;2022-12-29T14:52:54;8.90;99.90
52211;DHT22;38179;52.756;6.906;2022-12-29T14:58:01;8.90;99.90
52211;DHT22;38179;52.756;6.906;2022-12-29T15:00:29;8.90;99.90
52211;DHT22;38179;52.756;6.906;2022-12-29T15:05:42;8.80;99.90
52211;DHT22;38179;52.756;6.906;2022-12-29T15:08:09;8.80;99.90
52211;DHT22;38179;52.756;6.906;2022-12-29T15:10:42;8.80;99.90
52211;DHT22;38179;52.756;6.906;2022-12-29T15:13:20;8.80;99.90
52211;DHT22;38179;52.756;6.906;2022-12-29T15:15:47;8.80;99.90
52211;DHT22;38179;52.756;6.906;2022-12-29T15:18:23;8.80;99.90
52211;DHT22;38179;52.756;6.906;2022-12-29T15:20:54;8.80;99.90
52211;DHT22;38179;52.756;6.906;2022-12-29T15:23:21;8.80;99.90
52211;DHT22;38179;52.756;6.906;2022-12-29T15:25:49;8.80;99.90
52211;DHT22;38179;52.756;6.906;2022-12-29T15:28:16;8.80;99.90
52211;DHT22;38179;52.756;6.906;2022-12-29T15:30:53;8.80;99.90
52211;DHT22;38179;52.756;6.906;2022-12-29T15:33:24;8.70;99.90
52211;DHT22;38179;52.756;6.906;2022-12-29T15:35:52;8.70;99.90
52211;DHT22;38179;52.756;6.906;2022-12-29T15:38:28;8.70;99.90
52211;DHT22;38179;52.756;6.906;2022-12-29T15:40:55;8.70;99.90
52211;DHT22;38179;52.756;6.906;2022-12-29T15:45:53;8.70;99.90
52211;DHT22;38179;52.756;6.906;2022-12-29T15:48:21;8.60;99.90
52211;DHT22;38179;52.756;6.906;2022-12-29T15:50:48;8.60;99.90
52211;DHT22;38179;52.756;6.906;2022-12-29T15:53:18;8.60;99.90
52211;DHT22;38179;52.756;6.906;2022-12-29T15:55:45;8.60;99.90
52211;DHT22;38179;52.756;6.906;2022-12-29T15:58:21;8.50;99.90
52211;DHT22;38179;52.756;6.906;2022-12-29T16:00:49;8.50;99.90
52211;DHT22;38179;52.756;6.906;2022-12-29T16:03:15;8.50;99.90
52211;DHT22;38179;52.756;6.906;2022-12-29T16:05:42;8.50;99.90
52211;DHT22;38179;52.756;6.906;2022-12-29T16:08:23;8.50;99.90
52211;DHT22;38179;52.756;6.906;2022-12-29T16:10:50;8.50;99.90
52211;DHT22;38179;52.756;6.906;2022-12-29T16:13:25;8.50;99.90
52211;DHT22;38179;52.756;6.906;2022-12-29T16:15:53;8.50;99.90
52211;DHT22;38179;52.756;6.906;2022-12-29T16:18:23;8.50;99.90
52211;DHT22;38179;52.756;6.906;2022-12-29T16:20:50;8.40;99.90
52211;DHT22;38179;52.756;6.906;2022-12-29T16:23:26;8.40;99.90
52211;DHT22;38179;52.756;6.906;2022-12-29T16:25:54;8.40;99.90
52211;DHT22;38179;52.756;6.906;2022-12-29T16:28:23;8.40;99.90
52211;DHT22;38179;52.756;6.906;2022-12-29T16:31:24;8.40;99.90
52211;DHT22;38179;52.756;6.906;2022-12-29T16:33:51;8.40;99.90
52211;DHT22;38179;52.756;6.906;2022-12-29T16:36:31;8.30;99.90
52211;DHT22;38179;52.756;6.906;2022-12-29T16:41:41;8.30;99.90
52211;DHT22;38179;52.756;6.906;2022-12-29T16:49:23;8.20;99.90
52211;DHT22;38179;52.756;6.906;2022-12-29T16:51:50;8.30;99.90
52211;DHT22;38179;52.756;6.906;2022-12-29T16:54:21;8.20;99.90
52211;DHT22;38179;52.756;6.906;2022-12-29T16:56:47;8.20;99.90
52211;DHT22;38179;52.756;6.906;2022-12-29T17:01:58;8.20;99.90
52211;DHT22;38179;52.756;6.906;2022-12-29T17:04:25;8.20;99.90
52211;DHT22;38179;52.756;6.906;2022-12-29T17:06:51;8.20;99.90
52211;DHT22;38179;52.756;6.906;2022-12-29T17:11:43;8.10;99.90
52211;DHT22;38179;52.756;6.906;2022-12-29T17:16:47;8.10;99.90
52211;DHT22;38179;52.756;6.906;2022-12-29T17:19:20;8.00;99.90
52211;DHT22;38179;52.756;6.906;2022-12-29T17:21:46;8.00;99.90
52211;DHT22;38179;52.756;6.906;2022-12-29T17:24:16;8.00;99.90
52211;DHT22;38179;52.756;6.906;2022-12-29T17:26:42;8.00;99.90
52211;DHT22;38179;52.756;6.906;2022-12-29T17:29:12;8.00;99.90
52211;DHT22;38179;52.756;6.906;2022-12-29T17:31:41;8.00;99.90
52211;DHT22;38179;52.756;6.906;2022-12-29T17:34:07;8.00;99.90
52211;DHT22;38179;52.756;6.906;2022-12-29T17:36:35;8.00;99.90
52211;DHT22;38179;52.756;6.906;2022-12-29T17:39:01;8.00;99.90
52211;DHT22;38179;52.756;6.906;2022-12-29T17:41:27;8.00;99.90
52211;DHT22;38179;52.756;6.906;2022-12-29T17:43:53;8.00;99.90
52211;DHT22;38179;52.756;6.906;2022-12-29T17:46:19;8.00;99.90
52211;DHT22;38179;52.756;6.906;2022-12-29T17:48:45;8.10;99.90
52211;DHT22;38179;52.756;6.906;2022-12-29T17:51:10;8.10;99.90
52211;DHT22;38179;52.756;6.906;2022-12-29T17:53:36;8.10;99.90
52211;DHT22;38179;52.756;6.906;2022-12-29T17:56:02;8.10;99.90
52211;DHT22;38179;52.756;6.906;2022-12-29T17:58:28;8.10;99.90
52211;DHT22;38179;52.756;6.906;2022-12-29T18:00:56;8.10;99.90
52211;DHT22;38179;52.756;6.906;2022-12-29T18:03:25;8.10;99.90
52211;DHT22;38179;52.756;6.906;2022-12-29T18:05:51;8.10;99.90